createdAt,value
2019-05-07T00:01:33.917Z,99.90
2019-05-07T00:04:02.355Z,99.90
2019-05-07T00:06:32.572Z,99.90
2019-05-07T00:09:03.224Z,99.90
2019-05-07T00:11:33.097Z,99.90
2019-05-07T00:14:03.143Z,99.90
2019-05-07T00:16:32.510Z,99.90
2019-05-07T00:19:02.073Z,99.90
2019-05-07T00:21:32.578Z,99.90
2019-05-07T00:24:02.239Z,99.90
2019-05-07T00:26:32.042Z,99.90
2019-05-07T00:29:02.256Z,99.90
2019-05-07T00:31:32.605Z,99.90
2019-05-07T00:34:14.995Z,99.90
2019-05-07T00:36:45.110Z,99.90
2019-05-07T00:39:27.247Z,99.90
2019-05-07T00:42:12.995Z,99.90
2019-05-07T00:45:13.261Z,99.90
2019-05-07T00:47:28.999Z,99.90
2019-05-07T00:49:59.419Z,99.90
2019-05-07T00:52:29.084Z,99.90
2019-05-07T00:54:57.547Z,99.90
2019-05-07T00:57:26.315Z,99.90
2019-05-07T00:59:55.108Z,99.90
2019-05-07T01:02:23.900Z,99.90
2019-05-07T01:04:53.241Z,99.90
2019-05-07T01:07:23.032Z,99.90
2019-05-07T01:09:52.490Z,99.90
2019-05-07T01:12:22.177Z,99.90
2019-05-07T01:14:52.887Z,99.90
2019-05-07T01:17:22.763Z,99.90
2019-05-07T01:19:53.194Z,99.90
2019-05-07T01:22:23.766Z,99.90
2019-05-07T01:24:53.736Z,99.90
2019-05-07T01:27:22.827Z,99.90
2019-05-07T01:29:52.829Z,99.90
2019-05-07T01:32:23.330Z,99.90
2019-05-07T01:35:02.971Z,99.90
2019-05-07T01:37:32.590Z,99.90
2019-05-07T01:40:03.046Z,99.90
2019-05-07T01:42:32.782Z,99.90
2019-05-07T01:45:02.517Z,99.90
2019-05-07T01:47:33.016Z,99.90
2019-05-07T01:50:02.987Z,99.90
2019-05-07T01:52:33.135Z,99.90
2019-05-07T01:55:03.290Z,99.90
2019-05-07T01:57:32.644Z,99.90
2019-05-07T02:00:02.557Z,99.90
2019-05-07T02:02:32.978Z,99.90
2019-05-07T02:05:19.287Z,99.90
2019-05-07T02:07:49.407Z,99.90
2019-05-07T02:10:28.939Z,99.90
2019-05-07T02:12:57.415Z,99.90
2019-05-07T02:15:25.873Z,99.90
2019-05-07T02:17:54.343Z,99.90
2019-05-07T02:20:22.795Z,99.90
2019-05-07T02:22:53.250Z,99.90
2019-05-07T02:25:22.207Z,99.90
2019-05-07T02:27:52.820Z,99.90
2019-05-07T02:30:23.647Z,99.90
2019-05-07T02:32:54.062Z,99.90
2019-05-07T02:35:23.495Z,99.90
2019-05-07T02:37:56.821Z,99.90
2019-05-07T02:40:33.870Z,99.90
2019-05-07T02:43:03.232Z,99.90
2019-05-07T02:45:33.512Z,99.90
2019-05-07T02:48:03.489Z,99.90
2019-05-07T02:50:35.441Z,99.90
2019-05-07T02:53:05.609Z,99.90
2019-05-07T02:55:43.514Z,99.90
2019-05-07T02:58:13.744Z,99.90
2019-05-07T03:00:43.665Z,99.90
2019-05-07T03:03:13.736Z,99.90
2019-05-07T03:05:43.402Z,99.90
2019-05-07T03:08:13.466Z,99.90
2019-05-07T03:10:44.187Z,99.90
2019-05-07T03:13:13.728Z,99.90
2019-05-07T03:15:43.547Z,99.90
2019-05-07T03:18:13.889Z,99.90
2019-05-07T03:20:45.993Z,99.90
2019-05-07T03:23:16.164Z,99.90
2019-05-07T03:25:49.224Z,99.90
2019-05-07T03:28:18.840Z,99.90
2019-05-07T03:31:06.385Z,99.90
2019-05-07T03:33:39.997Z,99.90
2019-05-07T03:36:09.401Z,99.90
2019-05-07T03:38:38.167Z,99.90
2019-05-07T03:41:09.293Z,99.90
2019-05-07T03:43:37.834Z,99.90
2019-05-07T03:46:13.802Z,99.90
2019-05-07T03:48:44.042Z,99.90
2019-05-07T03:51:13.796Z,99.90
2019-05-07T03:53:43.724Z,99.90
2019-05-07T03:56:13.237Z,99.90
2019-05-07T03:58:43.326Z,99.90
2019-05-07T04:01:13.380Z,99.90
2019-05-07T04:03:44.723Z,99.90
2019-05-07T04:06:12.967Z,99.90
2019-05-07T04:08:43.347Z,99.90
2019-05-07T04:11:13.915Z,99.90
2019-05-07T04:13:44.092Z,99.90
2019-05-07T04:16:13.556Z,99.90
2019-05-07T04:18:43.656Z,99.90
2019-05-07T04:21:14.240Z,99.90
2019-05-07T04:23:43.878Z,99.90
2019-05-07T04:26:17.046Z,99.90
2019-05-07T04:28:53.713Z,99.90
2019-05-07T04:31:23.012Z,99.90
2019-05-07T04:33:53.171Z,99.90
2019-05-07T04:36:23.196Z,99.90
2019-05-07T04:38:53.232Z,99.90
2019-05-07T04:41:23.416Z,99.90
2019-05-07T04:43:54.059Z,99.90
2019-05-07T04:46:23.718Z,99.90
2019-05-07T04:48:53.135Z,99.90
2019-05-07T04:51:23.692Z,99.90
2019-05-07T04:53:54.079Z,99.90
2019-05-07T04:56:23.891Z,99.90
2019-05-07T04:58:54.075Z,99.90
2019-05-07T05:01:24.187Z,99.90
2019-05-07T05:03:54.081Z,99.90
2019-05-07T05:06:24.211Z,99.90
2019-05-07T05:08:56.305Z,99.90
2019-05-07T05:11:24.188Z,99.90
2019-05-07T05:13:53.368Z,99.90
2019-05-07T05:16:26.470Z,99.90
2019-05-07T05:18:57.804Z,99.90
2019-05-07T05:21:45.963Z,99.90
2019-05-07T05:24:18.995Z,99.90
2019-05-07T05:26:47.541Z,99.90
2019-05-07T05:29:19.391Z,99.90
2019-05-07T05:31:48.185Z,99.90
2019-05-07T05:34:16.896Z,99.90
2019-05-07T05:36:45.663Z,99.90
2019-05-07T05:39:14.461Z,99.90
2019-05-07T05:41:44.723Z,99.90
2019-05-07T05:44:14.905Z,99.90
2019-05-07T05:46:43.450Z,99.90
2019-05-07T05:49:12.298Z,99.90
2019-05-07T05:51:45.893Z,99.90
2019-05-07T05:54:24.879Z,99.90
2019-05-07T05:57:13.363Z,99.90
2019-05-07T06:00:02.023Z,99.90
2019-05-07T06:02:32.486Z,99.90
2019-05-07T06:05:19.319Z,99.90
2019-05-07T06:07:49.442Z,99.90
2019-05-07T06:10:19.552Z,99.90
2019-05-07T06:12:49.731Z,99.90
2019-05-07T06:15:23.951Z,99.90
2019-05-07T06:17:56.469Z,99.90
2019-05-07T06:20:26.831Z,99.90
2019-05-07T06:23:13.541Z,99.90
2019-05-07T06:25:45.399Z,99.90
2019-05-07T06:28:14.209Z,99.90
2019-05-07T06:30:42.984Z,99.90
2019-05-07T06:33:12.394Z,99.90
2019-05-07T06:35:42.853Z,99.90
2019-05-07T06:38:12.500Z,99.90
2019-05-07T06:40:45.615Z,99.90
2019-05-07T06:43:24.644Z,99.90
2019-05-07T06:45:56.114Z,99.90
2019-05-07T06:48:37.891Z,96.10
2019-05-07T06:50:57.817Z,95.80
2019-05-07T06:53:33.377Z,97.50
2019-05-07T06:56:04.233Z,99.90
2019-05-07T06:58:34.700Z,98.30
2019-05-07T07:01:16.321Z,97.80
2019-05-07T07:03:58.768Z,96.60
2019-05-07T07:06:32.188Z,95.80
2019-05-07T07:09:22.268Z,99.90
2019-05-07T07:12:08.051Z,99.90
2019-05-07T07:14:36.588Z,99.90
2019-05-07T07:17:05.320Z,97.80
2019-05-07T07:19:36.139Z,93.20
2019-05-07T07:22:04.057Z,90.80
2019-05-07T07:24:33.005Z,94.20
2019-05-07T07:27:02.483Z,98.10
2019-05-07T07:29:33.088Z,90.80
2019-05-07T07:32:03.605Z,92.00
2019-05-07T07:34:33.789Z,92.40
2019-05-07T07:37:14.960Z,94.90
2019-05-07T07:39:40.111Z,92.00
2019-05-07T07:42:12.256Z,96.70
2019-05-07T07:44:42.578Z,97.70
2019-05-07T07:47:12.879Z,93.50
2019-05-07T07:49:42.164Z,90.60
2019-05-07T07:52:13.518Z,97.50
2019-05-07T07:54:42.896Z,98.20
2019-05-07T07:57:13.435Z,93.30
2019-05-07T07:59:58.941Z,90.00
2019-05-07T08:02:33.135Z,94.10
2019-05-07T08:05:02.176Z,92.00
2019-05-07T08:07:32.995Z,93.70
2019-05-07T08:10:02.600Z,91.90
2019-05-07T08:12:32.646Z,86.70
2019-05-07T08:15:14.537Z,90.70
2019-05-07T08:17:32.632Z,92.30
2019-05-07T08:20:02.573Z,96.30
2019-05-07T08:22:32.992Z,95.90
2019-05-07T08:25:01.937Z,95.10
2019-05-07T08:27:32.520Z,95.90
2019-05-07T08:30:02.960Z,92.40
2019-05-07T08:32:42.399Z,85.80
2019-05-07T08:35:14.985Z,80.60
2019-05-07T08:37:43.851Z,78.50
2019-05-07T08:40:12.941Z,88.70
2019-05-07T08:42:41.977Z,97.70
2019-05-07T08:45:29.402Z,59.00
2019-05-07T08:48:01.993Z,54.40
2019-05-07T08:50:32.570Z,65.80
2019-05-07T08:53:02.807Z,76.40
2019-05-07T08:55:32.251Z,82.30
2019-05-07T08:58:02.234Z,89.50
2019-05-07T09:00:32.620Z,85.60
2019-05-07T09:03:02.158Z,82.70
2019-05-07T09:05:32.350Z,87.90
2019-05-07T09:08:02.294Z,89.20
2019-05-07T09:10:32.552Z,86.90
2019-05-07T09:13:02.901Z,82.30
2019-05-07T09:15:32.119Z,97.70
2019-05-07T09:18:02.013Z,95.70
2019-05-07T09:20:32.181Z,92.80
2019-05-07T09:23:02.077Z,79.30
2019-05-07T09:25:32.576Z,74.20
2019-05-07T09:28:02.640Z,88.40
2019-05-07T09:30:42.132Z,85.20
2019-05-07T09:33:12.655Z,80.80
2019-05-07T09:35:43.091Z,87.50
2019-05-07T09:38:12.179Z,96.20
2019-05-07T09:40:42.180Z,99.00
2019-05-07T09:43:12.635Z,99.90
2019-05-07T09:45:42.070Z,98.70
2019-05-07T09:48:11.970Z,99.90
2019-05-07T09:50:42.791Z,94.60
2019-05-07T09:53:12.794Z,97.90
2019-05-07T09:55:42.547Z,99.90
2019-05-07T09:58:12.589Z,99.90
2019-05-07T10:00:42.477Z,96.30
2019-05-07T10:03:12.709Z,93.00
2019-05-07T10:05:42.689Z,97.20
2019-05-07T10:08:12.923Z,94.40
2019-05-07T10:10:42.498Z,91.80
2019-05-07T10:13:27.843Z,90.70
2019-05-07T10:15:56.619Z,81.70
2019-05-07T10:18:25.143Z,76.30
2019-05-07T10:20:53.860Z,79.80
2019-05-07T10:23:23.906Z,77.60
2019-05-07T10:25:53.524Z,75.20
2019-05-07T10:28:22.865Z,83.50
2019-05-07T10:30:52.267Z,82.50
2019-05-07T10:33:22.854Z,84.50
2019-05-07T10:35:52.903Z,76.60
2019-05-07T10:38:22.010Z,79.60
2019-05-07T10:40:50.899Z,82.20
2019-05-07T10:43:19.449Z,72.40
2019-05-07T10:45:49.623Z,89.00
2019-05-07T10:48:23.009Z,73.30
2019-05-07T10:51:02.598Z,71.20
2019-05-07T10:53:32.038Z,59.10
2019-05-07T10:56:02.536Z,56.50
2019-05-07T10:58:32.020Z,66.70
2019-05-07T11:01:02.943Z,57.50
2019-05-07T11:03:32.391Z,59.90
2019-05-07T11:06:01.229Z,55.00
2019-05-07T11:08:29.772Z,51.80
2019-05-07T11:10:58.227Z,58.70
2019-05-07T11:13:27.002Z,72.70
2019-05-07T11:15:57.540Z,85.10
2019-05-07T11:18:36.943Z,85.40
2019-05-07T11:21:06.420Z,81.40
2019-05-07T11:23:34.895Z,84.10
2019-05-07T11:26:03.355Z,69.70
2019-05-07T11:28:32.575Z,81.00
2019-05-07T11:31:02.051Z,81.00
2019-05-07T11:33:32.544Z,88.20
2019-05-07T11:36:02.068Z,75.70
2019-05-07T11:38:33.170Z,80.50
2019-05-07T11:41:02.300Z,84.10
2019-05-07T11:43:32.879Z,77.40
2019-05-07T11:46:09.036Z,87.10
2019-05-07T11:48:39.468Z,88.80
2019-05-07T11:51:16.535Z,81.20
2019-05-07T11:54:03.157Z,76.00
2019-05-07T11:56:32.825Z,70.00
2019-05-07T11:59:02.693Z,68.50
2019-05-07T12:01:43.529Z,62.80
2019-05-07T12:04:04.706Z,59.20
2019-05-07T12:06:33.163Z,62.90
2019-05-07T12:09:03.053Z,61.30
2019-05-07T12:11:32.728Z,71.10
2019-05-07T12:14:02.079Z,60.70
2019-05-07T12:16:32.052Z,60.80
2019-05-07T12:19:02.252Z,67.20
2019-05-07T12:21:31.237Z,66.40
2019-05-07T12:24:02.072Z,72.50
2019-05-07T12:26:31.375Z,57.10
2019-05-07T12:28:59.846Z,65.80
2019-05-07T12:31:35.917Z,57.70
2019-05-07T12:34:06.041Z,66.40
2019-05-07T12:36:34.936Z,80.20
2019-05-07T12:39:05.351Z,73.60
2019-05-07T12:41:34.883Z,72.40
2019-05-07T12:44:06.302Z,72.60
2019-05-07T12:46:35.564Z,73.50
2019-05-07T12:49:04.579Z,77.80
2019-05-07T12:51:37.780Z,72.70
2019-05-07T12:54:22.678Z,82.20
2019-05-07T12:56:51.997Z,81.10
2019-05-07T12:59:21.832Z,70.90
2019-05-07T13:01:53.872Z,81.30
2019-05-07T13:04:24.047Z,72.10
2019-05-07T13:07:08.902Z,67.60
2019-05-07T13:09:37.399Z,73.90
2019-05-07T13:12:07.509Z,67.00
2019-05-07T13:14:36.040Z,65.70
2019-05-07T13:17:04.679Z,60.10
2019-05-07T13:19:33.215Z,58.30
2019-05-07T13:22:02.428Z,67.60
2019-05-07T13:24:32.108Z,66.40
2019-05-07T13:27:03.117Z,57.10
2019-05-07T13:29:32.644Z,61.80
2019-05-07T13:32:03.369Z,68.10
2019-05-07T13:34:34.173Z,66.00
2019-05-07T13:37:04.499Z,72.30
2019-05-07T13:39:35.826Z,69.00
2019-05-07T13:42:24.211Z,70.10
2019-05-07T13:44:54.618Z,69.40
2019-05-07T13:47:25.247Z,69.50
2019-05-07T13:49:54.443Z,66.30
2019-05-07T13:52:26.103Z,68.60
2019-05-07T13:54:55.552Z,68.30
2019-05-07T13:57:24.168Z,61.80
2019-05-07T13:59:53.257Z,63.40
2019-05-07T14:02:23.596Z,66.50
2019-05-07T14:04:52.701Z,67.70
2019-05-07T14:07:22.124Z,65.00
2019-05-07T14:09:52.666Z,70.70
2019-05-07T14:12:22.971Z,84.20
2019-05-07T14:14:53.111Z,99.60
2019-05-07T14:17:22.536Z,87.50
2019-05-07T14:19:52.809Z,84.20
2019-05-07T14:22:22.493Z,92.70
2019-05-07T14:24:52.942Z,95.20
2019-05-07T14:27:21.799Z,90.60
2019-05-07T14:29:52.068Z,75.80
2019-05-07T14:32:22.335Z,67.90
2019-05-07T14:35:07.906Z,61.90
2019-05-07T14:37:41.852Z,67.10
2019-05-07T14:40:12.923Z,63.60
2019-05-07T14:42:44.844Z,65.00
2019-05-07T14:45:13.947Z,65.80
2019-05-07T14:47:44.789Z,74.70
2019-05-07T14:50:13.359Z,60.20
2019-05-07T14:52:43.441Z,63.50
2019-05-07T14:55:12.987Z,68.40
2019-05-07T14:57:42.219Z,61.00
2019-05-07T15:00:12.297Z,60.20
2019-05-07T15:02:42.102Z,72.00
2019-05-07T15:05:12.103Z,71.60
2019-05-07T15:07:40.736Z,73.50
2019-05-07T15:10:09.728Z,87.40
2019-05-07T15:12:38.203Z,82.00
2019-05-07T15:15:07.593Z,75.00
2019-05-07T15:17:38.285Z,76.10
2019-05-07T15:20:07.364Z,84.10
2019-05-07T15:22:50.105Z,80.30
2019-05-07T15:25:19.908Z,78.00
2019-05-07T15:27:50.091Z,72.40
2019-05-07T15:30:19.107Z,74.80
2019-05-07T15:32:48.991Z,82.20
2019-05-07T15:35:17.462Z,83.90
2019-05-07T15:37:46.228Z,74.10
2019-05-07T15:40:14.967Z,71.30
2019-05-07T15:42:43.418Z,67.50
2019-05-07T15:45:12.668Z,78.60
2019-05-07T15:47:43.360Z,72.60
2019-05-07T15:50:12.693Z,70.00
2019-05-07T15:52:58.054Z,72.30
2019-05-07T15:55:19.644Z,69.80
2019-05-07T15:57:48.462Z,74.60
2019-05-07T16:00:19.123Z,70.40
2019-05-07T16:02:53.588Z,78.80
2019-05-07T16:05:22.452Z,75.70
2019-05-07T16:07:51.451Z,80.10
2019-05-07T16:10:23.008Z,79.40
2019-05-07T16:12:53.168Z,75.80
2019-05-07T16:15:22.581Z,73.90
2019-05-07T16:17:58.843Z,72.10
2019-05-07T16:20:27.385Z,86.50
2019-05-07T16:23:13.924Z,82.90
2019-05-07T16:25:32.866Z,80.10
2019-05-07T16:28:04.435Z,78.20
2019-05-07T16:30:32.387Z,81.60
2019-05-07T16:33:02.643Z,87.60
2019-05-07T16:35:32.024Z,81.10
2019-05-07T16:38:00.748Z,87.30
2019-05-07T16:40:29.215Z,84.80
2019-05-07T16:42:57.666Z,91.40
2019-05-07T16:45:26.143Z,81.60
2019-05-07T16:47:54.895Z,91.90
2019-05-07T16:50:23.783Z,85.80
2019-05-07T16:52:52.565Z,80.80
2019-05-07T16:55:22.417Z,90.00
2019-05-07T16:58:05.102Z,82.40
2019-05-07T17:00:44.343Z,77.70
2019-05-07T17:03:16.094Z,81.70
2019-05-07T17:05:44.887Z,79.80
2019-05-07T17:08:15.319Z,82.20
2019-05-07T17:10:44.367Z,77.10
2019-05-07T17:13:12.810Z,83.20
2019-05-07T17:15:54.720Z,83.00
2019-05-07T17:18:25.179Z,86.10
2019-05-07T17:20:55.506Z,78.40
2019-05-07T17:23:25.346Z,78.20
2019-05-07T17:25:54.264Z,80.30
2019-05-07T17:28:22.989Z,85.80
2019-05-07T17:30:52.484Z,83.70
2019-05-07T17:33:22.876Z,91.50
2019-05-07T17:35:51.886Z,87.60
2019-05-07T17:38:22.874Z,91.40
2019-05-07T17:40:52.148Z,91.10
2019-05-07T17:43:23.195Z,95.60
2019-05-07T17:45:52.245Z,96.00
2019-05-07T17:48:22.995Z,97.20
2019-05-07T17:50:53.195Z,97.00
2019-05-07T17:53:22.509Z,99.90
2019-05-07T17:55:52.907Z,99.90
2019-05-07T17:58:21.331Z,99.90
2019-05-07T18:00:52.903Z,99.90
2019-05-07T18:03:35.319Z,99.90
2019-05-07T18:06:06.059Z,99.90
2019-05-07T18:08:34.694Z,99.90
2019-05-07T18:11:17.434Z,99.90
2019-05-07T18:13:33.971Z,99.90
2019-05-07T18:16:04.403Z,99.90
2019-05-07T18:18:33.002Z,99.90
2019-05-07T18:21:02.214Z,99.90
2019-05-07T18:23:32.107Z,99.90
2019-05-07T18:26:01.211Z,99.90
2019-05-07T18:28:29.718Z,99.90
2019-05-07T18:30:58.915Z,99.90
2019-05-07T18:33:33.597Z,99.90
2019-05-07T18:36:02.962Z,99.90
2019-05-07T18:38:32.967Z,99.90
2019-05-07T18:41:02.684Z,99.90
2019-05-07T18:43:33.123Z,99.90
2019-05-07T18:46:02.446Z,99.90
2019-05-07T18:48:31.043Z,99.90
2019-05-07T18:50:59.570Z,99.90
2019-05-07T18:53:28.467Z,99.90
2019-05-07T18:55:56.917Z,99.90
2019-05-07T18:58:25.763Z,99.90
2019-05-07T19:01:02.717Z,99.90
2019-05-07T19:03:32.465Z,99.90
2019-05-07T19:06:02.774Z,99.90
2019-05-07T19:08:32.644Z,99.90
2019-05-07T19:11:05.779Z,99.90
2019-05-07T19:13:33.931Z,99.90
2019-05-07T19:16:02.955Z,99.90
2019-05-07T19:18:32.295Z,99.90
2019-05-07T19:21:00.874Z,99.90
2019-05-07T19:23:29.347Z,99.90
2019-05-07T19:25:58.067Z,99.90
2019-05-07T19:28:26.779Z,99.90
2019-05-07T19:30:55.247Z,99.90
2019-05-07T19:33:27.018Z,99.90
2019-05-07T19:35:54.215Z,99.90
2019-05-07T19:38:22.990Z,99.90
2019-05-07T19:40:52.807Z,99.90
2019-05-07T19:43:21.720Z,99.90
2019-05-07T19:45:52.243Z,99.90
2019-05-07T19:48:20.439Z,99.90
2019-05-07T19:50:48.903Z,99.90
2019-05-07T19:53:20.378Z,99.90
2019-05-07T19:56:04.527Z,99.90
2019-05-07T19:58:33.343Z,99.90
2019-05-07T20:01:04.220Z,99.90
2019-05-07T20:03:32.667Z,99.90
2019-05-07T20:06:02.437Z,99.90
2019-05-07T20:08:32.315Z,99.90
2019-05-07T20:11:15.087Z,99.90
2019-05-07T20:13:43.871Z,99.90
2019-05-07T20:16:14.407Z,99.90
2019-05-07T20:18:43.202Z,99.90
2019-05-07T20:21:12.970Z,99.90
2019-05-07T20:23:43.215Z,99.90
2019-05-07T20:26:12.640Z,99.90
2019-05-07T20:28:41.861Z,99.90
2019-05-07T20:31:12.239Z,99.90
2019-05-07T20:33:42.200Z,99.90
2019-05-07T20:36:11.155Z,99.90
2019-05-07T20:38:39.990Z,99.90
2019-05-07T20:41:08.887Z,99.90
2019-05-07T20:43:37.334Z,99.90
2019-05-07T20:46:06.164Z,99.90
2019-05-07T20:48:34.883Z,99.90
2019-05-07T20:51:03.742Z,99.90
2019-05-07T20:53:52.282Z,99.90
2019-05-07T20:56:25.279Z,99.90
2019-05-07T20:58:54.083Z,99.90
2019-05-07T21:01:23.648Z,99.90
2019-05-07T21:03:52.822Z,99.90
2019-05-07T21:06:22.474Z,99.90
2019-05-07T21:08:51.491Z,99.90
2019-05-07T21:11:19.959Z,99.90
2019-05-07T21:13:48.787Z,99.90
2019-05-07T21:16:17.340Z,99.90
2019-05-07T21:18:46.163Z,99.90
2019-05-07T21:21:14.715Z,99.90
2019-05-07T21:23:43.613Z,99.90
2019-05-07T21:26:13.234Z,99.90
2019-05-07T21:28:43.269Z,99.90
2019-05-07T21:31:12.150Z,99.90
2019-05-07T21:33:42.678Z,99.90
2019-05-07T21:36:12.065Z,99.90
2019-05-07T21:38:42.480Z,99.90
2019-05-07T21:41:12.842Z,99.90
2019-05-07T21:43:44.221Z,99.90
2019-05-07T21:46:12.789Z,99.90
2019-05-07T21:48:41.535Z,99.90
2019-05-07T21:51:12.267Z,99.90
2019-05-07T21:53:42.972Z,99.90
2019-05-07T21:56:31.491Z,99.90
2019-05-07T21:59:03.070Z,99.90
2019-05-07T22:01:33.611Z,99.90
2019-05-07T22:04:02.134Z,99.90
2019-05-07T22:06:30.603Z,99.90
2019-05-07T22:08:59.330Z,99.90
2019-05-07T22:11:27.855Z,99.90
2019-05-07T22:13:56.329Z,99.90
2019-05-07T22:16:25.127Z,99.90
2019-05-07T22:18:53.599Z,99.90
2019-05-07T22:21:22.051Z,99.90
2019-05-07T22:23:52.217Z,99.90
2019-05-07T22:26:25.699Z,99.90
2019-05-07T22:28:53.796Z,99.90
2019-05-07T22:31:32.889Z,99.90
2019-05-07T22:34:22.263Z,99.90
2019-05-07T22:36:52.100Z,99.90
2019-05-07T22:39:22.141Z,99.90
2019-05-07T22:41:50.739Z,99.90
2019-05-07T22:44:22.712Z,99.90
2019-05-07T22:46:49.939Z,99.90
2019-05-07T22:49:18.727Z,99.90
2019-05-07T22:51:47.183Z,99.90
2019-05-07T22:54:16.007Z,99.90
2019-05-07T22:56:58.415Z,99.90
2019-05-07T22:59:26.887Z,99.90
2019-05-07T23:01:55.683Z,99.90
2019-05-07T23:04:24.159Z,99.90
2019-05-07T23:06:54.103Z,99.90
2019-05-07T23:09:22.988Z,99.90
2019-05-07T23:11:52.587Z,99.90
2019-05-07T23:14:22.809Z,99.90
2019-05-07T23:16:54.992Z,99.90
2019-05-07T23:19:22.297Z,99.90
2019-05-07T23:21:52.177Z,99.90
2019-05-07T23:24:22.642Z,99.90
2019-05-07T23:26:53.584Z,99.90
2019-05-07T23:29:22.665Z,99.90
2019-05-07T23:31:52.885Z,99.90
2019-05-07T23:34:22.231Z,99.90
2019-05-07T23:36:53.061Z,99.90
2019-05-07T23:39:23.033Z,99.90
2019-05-07T23:41:59.403Z,99.90
2019-05-07T23:44:28.296Z,99.90
2019-05-07T23:46:58.055Z,99.90
2019-05-07T23:49:26.519Z,99.90
2019-05-07T23:51:55.287Z,99.90
2019-05-07T23:54:24.183Z,99.90
2019-05-07T23:57:05.027Z,99.90
2019-05-07T23:59:23.507Z,99.90
